Pagina principale
METAR-TAF:

METAR-TAF

Aeroporti :

Aeroporto Internazionale di Mostar

Mostar, Bosnia-Erzegovina

latitudine: 43-21N, longitudine: 017-48E, altezza: 108 m

Osservazione

Il bollettino è stato emesso 8 minuti fa, alle 17:00 UTC
Vento 5 kt da nord, variando fra ovest e est/nord-est
Temperature 17°C
Umidità 42%
Pressione 1015 hPa
Visibilità 10 km o più
nessuna nube inferiore a 1500 m e nessun cumulonembo

METAR: LQMO 231700Z 35005KT 280V060 CAVOK 17/04 Q1015

Ora: 19:08 (17:08 UTC)

Previsione

Il bollettino è stato emesso 6 ore e 8 minuti fa, alle 11:00 UTC
Previsione valida dal 23 alle 12 UTC al 24 alle 12 UTC
Vento 6 kt da nord-ovest
Visibilità 10 km o più
Poco nuvoloso ad un'altezza di 4500 ft
Probabilità 30% :
Temporaneamente
dal 23 alle 12 UTC al 23 alle 15 UTC
Vento 12 kt da nord

TAF: LQMO 231100Z 2312/2412 31006KT 9999 FEW045 TX22/2313Z TN13/2405Z PROB30 TEMPO 2312/2315 01012KT

Osservazioni e previsioni meteorologiche di più di 4000 aeroporti (messaggi METAR e TAF).

Le stazioni disponibili sono rappresentate dai dischi gialli e rossi sulla carta.

Puntare il mouse per vedere il nome della stazione.

Clicca sopra per visualizzare le osservazioni e previsioni meteorologiche.

Per cambiare la mappa : fare clic sui pulsanti verdi con una croce nera per ingrandire, il pulsante verde con un trattino per diminuire, o sulla freccia verde per le mappe adiacenti.


METAR-TAF: